createdAt,value
2018-08-16T17:18:59.415Z,98495.76
2018-08-16T17:21:30.374Z,98501.16
2018-08-16T17:24:01.303Z,98500.58
2018-08-16T17:26:33.491Z,98499.08
2018-08-16T17:29:05.127Z,98501.00
2018-08-16T17:31:35.956Z,98504.48
2018-08-16T17:34:06.900Z,98501.41
2018-08-16T17:36:38.710Z,98503.69
2018-08-16T17:39:10.088Z,98510.62
2018-08-16T17:41:41.381Z,98503.66
2018-08-16T17:44:14.299Z,98513.61
2018-08-16T17:46:45.731Z,98515.73
2018-08-16T17:49:17.535Z,98520.42
2018-08-16T17:51:49.938Z,98516.30
2018-08-16T17:54:22.170Z,98518.98
2018-08-16T17:56:53.596Z,98526.21
2018-08-16T17:59:25.170Z,98524.65
2018-08-16T18:01:56.142Z,98534.72
2018-08-16T18:04:30.478Z,98538.76
2018-08-16T18:07:02.979Z,98540.53
2018-08-16T18:09:37.974Z,98537.15
2018-08-16T18:12:18.873Z,98543.59
2018-08-16T18:15:01.989Z,98544.24
2018-08-16T18:17:35.146Z,98542.70
2018-08-16T18:20:06.539Z,98551.28
2018-08-16T18:22:42.754Z,98554.27
2018-08-16T18:25:17.506Z,98553.27
2018-08-16T18:27:50.844Z,98551.92
2018-08-16T18:30:24.200Z,98558.34
2018-08-16T18:32:55.773Z,98556.22
2018-08-16T18:35:28.004Z,98560.06
2018-08-16T18:38:03.063Z,98567.23
2018-08-16T18:40:35.303Z,98573.52
2018-08-16T18:43:06.289Z,98572.27
2018-08-16T18:45:40.517Z,98576.80
2018-08-16T18:48:11.971Z,98573.66
2018-08-16T18:50:42.841Z,98574.80
2018-08-16T18:53:13.645Z,98574.46
2018-08-16T18:55:45.874Z,98572.52
2018-08-16T18:58:16.664Z,98575.76
2018-08-16T19:00:47.553Z,98578.78
2018-08-16T19:03:19.510Z,98579.41
2018-08-16T19:05:50.797Z,98580.39
2018-08-16T19:08:22.564Z,98584.53
2018-08-16T19:11:03.377Z,98593.82
2018-08-16T19:13:37.244Z,98593.17
2018-08-16T19:16:10.340Z,98597.19
2018-08-16T19:18:43.486Z,98594.34
2018-08-16T19:21:15.898Z,98597.59
2018-08-16T19:23:48.910Z,98603.48
2018-08-16T19:26:23.105Z,98608.08
2018-08-16T19:28:57.153Z,98598.02
2018-08-16T19:34:04.401Z,98608.50
2018-08-16T19:36:37.956Z,98611.61
2018-08-16T19:39:13.687Z,98605.42
2018-08-16T19:41:45.972Z,98606.13
2018-08-16T19:44:18.204Z,98612.18
2018-08-16T19:46:52.075Z,98617.19
2018-08-16T19:49:24.269Z,98616.53
2018-08-16T19:51:56.984Z,98613.69
2018-08-16T19:54:28.846Z,98618.83
2018-08-16T19:57:01.039Z,98619.45
2018-08-16T19:59:32.991Z,98619.09
2018-08-16T20:02:04.984Z,98622.33
2018-08-16T20:04:36.837Z,98623.00
2018-08-16T20:07:10.687Z,98629.09
2018-08-16T20:09:43.734Z,98625.80
2018-08-16T20:12:16.177Z,98622.72
2018-08-16T20:14:48.301Z,98624.84
2018-08-16T20:17:20.335Z,98624.59
2018-08-16T20:19:54.330Z,98630.05
2018-08-16T20:22:26.611Z,98628.27
2018-08-16T20:24:57.912Z,98631.73
2018-08-16T20:27:30.876Z,98630.18
2018-08-16T20:30:02.684Z,98626.21
2018-08-16T20:32:37.215Z,98630.63
2018-08-16T20:35:08.465Z,98637.06
2018-08-16T20:37:41.641Z,98636.05
2018-08-16T20:40:13.167Z,98637.28
2018-08-16T20:42:44.476Z,98631.12
2018-08-16T20:45:15.657Z,98635.98
2018-08-16T20:47:48.211Z,98650.56
2018-08-16T20:50:21.773Z,98648.61
2018-08-16T20:52:53.607Z,98649.10
2018-08-16T20:55:25.071Z,98649.70
2018-08-16T20:58:00.552Z,98655.23
2018-08-16T21:00:33.565Z,98656.56
2018-08-16T21:03:10.012Z,98657.36
2018-08-16T21:05:44.218Z,98653.56
2018-08-16T21:08:15.728Z,98657.19
2018-08-16T21:10:47.721Z,98652.42
2018-08-16T21:13:22.514Z,98657.31
2018-08-16T21:15:57.220Z,98656.75
2018-08-16T21:18:30.025Z,98649.81
2018-08-16T21:21:01.037Z,98647.20
2018-08-16T21:23:32.010Z,98647.64
2018-08-16T21:26:03.184Z,98651.74
2018-08-16T21:28:34.133Z,98646.44
2018-08-16T21:31:05.991Z,98644.08
2018-08-16T21:33:40.795Z,98643.30
2018-08-16T21:36:11.841Z,98645.33
2018-08-16T21:38:42.761Z,98650.01
2018-08-16T21:41:13.678Z,98646.59
2018-08-16T21:43:46.173Z,98651.46
2018-08-16T21:46:16.998Z,98658.70
2018-08-16T21:48:49.407Z,98653.84
2018-08-16T21:51:20.444Z,98657.47
2018-08-16T21:53:51.251Z,98660.95
2018-08-16T21:56:22.157Z,98662.83
2018-08-16T21:58:53.140Z,98667.05
2018-08-16T22:01:23.994Z,98663.70
2018-08-16T22:03:54.874Z,98664.17
2018-08-16T22:06:42.474Z,98661.75
2018-08-16T22:09:14.142Z,98665.02
2018-08-16T22:11:45.003Z,98668.63
2018-08-16T22:14:15.715Z,98665.52
2018-08-16T22:16:46.508Z,98668.48
2018-08-16T22:19:17.322Z,98663.35
2018-08-16T22:21:48.088Z,98668.52
2018-08-16T22:24:19.048Z,98665.17
2018-08-16T22:26:50.167Z,98662.20
2018-08-16T22:29:20.915Z,98661.72
2018-08-16T22:31:51.959Z,98660.55
2018-08-16T22:34:22.708Z,98657.42
2018-08-16T22:36:54.539Z,98660.61
2018-08-16T22:39:25.390Z,98659.13
2018-08-16T22:41:56.080Z,98659.16
2018-08-16T22:44:26.879Z,98663.83
2018-08-16T22:46:57.701Z,98659.39
2018-08-16T22:49:29.320Z,98664.05
2018-08-16T22:52:01.132Z,98663.71
2018-08-16T22:54:31.960Z,98671.22
2018-08-16T22:57:05.653Z,98670.23
2018-08-16T22:59:36.409Z,98674.37
2018-08-16T23:02:07.316Z,98676.72
2018-08-16T23:04:38.515Z,98674.92
2018-08-16T23:07:09.533Z,98673.32
2018-08-16T23:09:47.713Z,98668.53
2018-08-16T23:12:18.485Z,98668.39
2018-08-16T23:14:49.593Z,98665.77
2018-08-16T23:17:20.353Z,98665.95
2018-08-16T23:19:51.239Z,98668.80
2018-08-16T23:22:22.869Z,98666.16
2018-08-16T23:24:54.080Z,98666.00
2018-08-16T23:27:24.965Z,98665.38
2018-08-16T23:29:55.632Z,98668.17
2018-08-16T23:32:26.500Z,98669.55
2018-08-16T23:34:57.967Z,98662.64
2018-08-16T23:37:28.609Z,98659.32
2018-08-16T23:39:59.371Z,98663.50
2018-08-16T23:42:30.191Z,98655.05
2018-08-16T23:45:01.035Z,98658.50
2018-08-16T23:47:31.645Z,98654.73
2018-08-16T23:50:02.241Z,98656.78
2018-08-16T23:52:33.136Z,98654.83
2018-08-16T23:55:03.744Z,98661.77
2018-08-16T23:57:34.232Z,98661.80
